Time;durP1;ratioP1;P1;durP2;ratioP2;P2;SDS_P1;SDS_P2;PMS_P1;PMS_P2;Temp;Humidity;BMP_temperature;BMP_pressure;BME280_temperature;BME280_humidity;BME280_pressure;Samples;Min_cycle;Max_cycle;Signal;HPM_P1;HPM_P2
2023/06/15 00:01:42;;;;;;;4.77;4.37;;;15.10;99.90;;;;;;5097247;28;20504;-58
2023/06/15 00:04:10;;;;;;;5.30;4.50;;;15.10;99.90;;;;;;5096960;28;20532;-59
2023/06/15 00:06:37;;;;;;;4.80;4.40;;;15.10;99.90;;;;;;5097896;28;20562;-59
2023/06/15 00:09:04;;;;;;;5.80;5.30;;;15.20;99.90;;;;;;5097373;28;20846;-59
2023/06/15 00:11:32;;;;;;;5.70;5.20;;;15.10;99.90;;;;;;5098084;28;20464;-59
2023/06/15 00:14:00;;;;;;;5.40;4.90;;;15.00;99.90;;;;;;5116800;27;20513;-56
2023/06/15 00:16:31;;;;;;;5.03;4.50;;;15.00;99.90;;;;;;5115974;28;20691;-58
2023/06/15 00:19:01;;;;;;;5.60;5.03;;;14.90;99.90;;;;;;5107564;28;20483;-59
2023/06/15 00:21:30;;;;;;;5.17;4.33;;;14.80;99.90;;;;;;5097378;28;20464;-59
2023/06/15 00:23:57;;;;;;;5.07;4.50;;;14.90;99.90;;;;;;5096625;28;20488;-59
2023/06/15 00:26:26;;;;;;;4.97;4.57;;;14.80;99.90;;;;;;5096977;28;20477;-59
2023/06/15 00:28:53;;;;;;;5.40;4.87;;;14.70;99.90;;;;;;5097646;28;20468;-59
2023/06/15 00:31:22;;;;;;;5.53;4.90;;;14.60;99.90;;;;;;5096446;28;20472;-59
2023/06/15 00:33:49;;;;;;;5.03;4.57;;;14.70;99.90;;;;;;5096892;28;20773;-59
2023/06/15 00:36:17;;;;;;;4.83;4.43;;;14.60;1.00;;;;;;5097270;28;20559;-59
2023/06/15 00:38:45;;;;;;;4.97;4.50;;;14.60;99.90;;;;;;5097139;28;20468;-58
2023/06/15 00:41:12;;;;;;;5.93;4.77;;;14.50;1.00;;;;;;5097148;28;20752;-59
2023/06/15 00:43:40;;;;;;;6.07;5.47;;;14.50;1.00;;;;;;5115061;28;20574;-59
2023/06/15 00:46:07;;;;;;;5.33;4.80;;;14.40;1.00;;;;;;5116587;28;20558;-59
2023/06/15 00:48:36;;;;;;;5.10;4.70;;;14.30;1.00;;;;;;5116881;28;20468;-59
2023/06/15 00:51:04;;;;;;;4.87;4.50;;;14.30;1.00;;;;;;5116878;28;20558;-58
2023/06/15 00:53:32;;;;;;;5.53;4.97;;;14.30;1.00;;;;;;5116357;28;20558;-59
2023/06/15 00:56:00;;;;;;;5.93;4.43;;;14.20;1.00;;;;;;5116385;28;20494;-59
2023/06/15 00:58:27;;;;;;;4.70;4.30;;;14.20;1.00;;;;;;5116674;28;20562;-59
2023/06/15 01:00:55;;;;;;;5.53;4.50;;;14.20;1.00;;;;;;5110548;28;20472;-59
2023/06/15 01:03:22;;;;;;;5.03;4.53;;;14.20;1.00;;;;;;5095679;28;20539;-57
2023/06/15 01:05:57;;;;;;;5.93;4.53;;;14.10;1.00;;;;;;5097060;28;20474;-59
2023/06/15 01:08:27;;;;;;;4.97;4.47;;;14.00;99.90;;;;;;5097154;28;20908;-59
2023/06/15 01:10:56;;;;;;;5.33;4.73;;;14.00;1.00;;;;;;5098924;28;20464;-59
2023/06/15 01:13:23;;;;;;;6.07;4.60;;;13.90;1.00;;;;;;5115459;28;20472;-59
2023/06/15 01:16:23;;;;;;;8.40;4.70;;;13.80;1.00;;;;;;5111480;28;20773;-59
2023/06/15 01:18:56;;;;;;;7.20;4.90;;;13.70;1.00;;;;;;5099919;28;20568;-59
2023/06/15 01:21:28;;;;;;;8.67;4.83;;;13.60;1.00;;;;;;5100187;28;20468;-59
2023/06/15 01:24:08;;;;;;;4.67;4.20;;;13.60;99.90;;;;;;5100202;28;20487;-59
2023/06/15 01:26:41;;;;;;;9.80;5.20;;;13.60;99.90;;;;;;5113366;28;20477;-59
2023/06/15 01:29:10;;;;;;;5.10;4.60;;;13.50;1.00;;;;;;5100151;28;20468;-59
2023/06/15 01:31:40;;;;;;;5.10;4.60;;;13.50;1.00;;;;;;5103373;28;20482;-59
2023/06/15 01:34:07;;;;;;;4.70;4.30;;;13.40;99.90;;;;;;5100343;28;20533;-59
2023/06/15 01:36:36;;;;;;;6.33;5.73;;;13.40;1.00;;;;;;5100591;28;20460;-59
2023/06/15 01:39:05;;;;;;;6.83;5.03;;;13.40;1.00;;;;;;5100259;28;20464;-59
2023/06/15 01:41:35;;;;;;;4.90;4.30;;;13.50;99.90;;;;;;5099521;28;20525;-59
2023/06/15 01:44:04;;;;;;;6.93;5.10;;;13.40;1.00;;;;;;5117946;28;20958;-59
2023/06/15 01:46:33;;;;;;;7.93;4.63;;;13.40;1.00;;;;;;5118447;28;20570;-57
2023/06/15 01:49:01;;;;;;;5.63;4.60;;;13.40;99.90;;;;;;5119138;28;20463;-59
2023/06/15 01:51:31;;;;;;;5.20;4.70;;;13.40;1.00;;;;;;5119481;28;20471;-60
2023/06/15 01:53:58;;;;;;;5.07;4.57;;;13.40;1.00;;;;;;5119471;28;20542;-59
2023/06/15 01:56:26;;;;;;;4.97;4.30;;;13.40;1.00;;;;;;5119679;28;20467;-59
2023/06/15 01:58:53;;;;;;;5.40;4.93;;;13.40;1.00;;;;;;5119184;28;20851;-58
2023/06/15 02:01:21;;;;;;;5.93;5.33;;;13.40;1.00;;;;;;5118788;28;20462;-59
2023/06/15 02:03:53;;;;;;;5.27;4.80;;;13.30;1.00;;;;;;5118985;28;20499;-59
2023/06/15 02:06:20;;;;;;;5.93;5.33;;;13.20;1.00;;;;;;5119609;28;20490;-59
2023/06/15 02:08:47;;;;;;;5.53;5.03;;;13.20;1.00;;;;;;5119220;27;20463;-59
2023/06/15 02:11:18;;;;;;;5.33;4.93;;;13.10;1.00;;;;;;5119194;28;20463;-59
2023/06/15 02:13:45;;;;;;;5.30;4.90;;;13.10;90.40;;;;;;5119401;28;20801;-59
2023/06/15 02:16:15;;;;;;;6.07;5.57;;;13.10;1.00;;;;;;5117222;28;20472;-59
2023/06/15 02:18:44;;;;;;;5.50;5.00;;;13.10;99.90;;;;;;5118230;28;20555;-57
2023/06/15 02:21:11;;;;;;;8.03;6.17;;;13.10;5.00;;;;;;5118738;28;20892;-59
2023/06/15 02:23:38;;;;;;;5.80;5.20;;;13.10;99.90;;;;;;5117967;28;20838;-57
2023/06/15 02:26:05;;;;;;;5.50;5.00;;;13.10;99.90;;;;;;5118107;28;20472;-59
2023/06/15 02:28:33;;;;;;;6.83;4.83;;;13.10;1.00;;;;;;5118569;28;20463;-59
2023/06/15 02:31:00;;;;;;;5.47;4.97;;;13.00;1.00;;;;;;5112887;28;20460;-59
2023/06/15 02:33:27;;;;;;;7.20;5.83;;;13.00;1.00;;;;;;5099131;28;20571;-59
2023/06/15 02:35:55;;;;;;;6.37;5.10;;;13.10;1.00;;;;;;5099051;28;20498;-59
2023/06/15 02:38:23;;;;;;;5.53;5.03;;;13.00;1.00;;;;;;5099109;28;20800;-59
2023/06/15 02:40:51;;;;;;;6.20;5.60;;;13.00;1.00;;;;;;5099061;28;20464;-59
2023/06/15 02:43:18;;;;;;;6.03;5.27;;;12.90;1.00;;;;;;5110385;28;20512;-59
2023/06/15 02:45:45;;;;;;;6.00;5.50;;;12.90;1.00;;;;;;5113352;28;20518;-59
2023/06/15 02:48:12;;;;;;;6.00;5.40;;;12.90;1.00;;;;;;5098204;28;20471;-59
2023/06/15 02:50:40;;;;;;;8.00;5.20;;;12.80;1.00;;;;;;5099360;28;20862;-59
2023/06/15 02:53:08;;;;;;;5.80;5.30;;;12.80;1.00;;;;;;5098551;28;20468;-59
2023/06/15 02:55:37;;;;;;;5.57;5.07;;;12.80;1.00;;;;;;5098836;28;20825;-57
2023/06/15 02:58:05;;;;;;;6.53;5.90;;;12.80;1.00;;;;;;5099033;28;20475;-58
2023/06/15 03:00:32;;;;;;;5.33;4.83;;;12.80;1.00;;;;;;5098712;28;20469;-58
2023/06/15 03:03:00;;;;;;;8.80;5.53;;;12.70;1.00;;;;;;5098599;28;20507;-59
2023/06/15 03:05:27;;;;;;;6.00;5.40;;;12.70;1.00;;;;;;5098223;28;20496;-58
2023/06/15 03:07:54;;;;;;;7.43;5.67;;;12.60;1.00;;;;;;5098420;28;20471;-59
2023/06/15 03:10:23;;;;;;;7.23;5.87;;;12.60;1.00;;;;;;5098933;28;20468;-59
2023/06/15 03:12:50;;;;;;;6.00;5.50;;;12.50;1.00;;;;;;5103277;28;20511;-59
2023/06/15 03:15:17;;;;;;;5.93;5.17;;;12.40;1.00;;;;;;5105992;28;20883;-59
2023/06/15 03:17:45;;;;;;;6.77;5.77;;;12.40;32.80;;;;;;5097728;28;20472;-57
2023/06/15 03:20:12;;;;;;;6.77;6.17;;;12.50;38.50;;;;;;5098445;28;20851;-59
2023/06/15 03:22:39;;;;;;;6.30;5.77;;;12.50;1.00;;;;;;5098879;28;20468;-59
2023/06/15 03:25:10;;;;;;;6.07;5.30;;;12.50;1.00;;;;;;5097806;28;20694;-59
2023/06/15 03:27:40;;;;;;;5.73;5.13;;;12.50;1.00;;;;;;5097916;28;20555;-59
2023/06/15 03:30:11;;;;;;;6.73;6.10;;;12.60;1.00;;;;;;5098172;28;20468;-54
2023/06/15 03:32:38;;;;;;;12.10;6.10;;;12.60;1.00;;;;;;5117927;28;20896;-59
2023/06/15 03:35:07;;;;;;;6.20;5.60;;;12.50;1.00;;;;;;5116319;28;20456;-59
2023/06/15 03:37:34;;;;;;;6.23;5.70;;;12.50;1.00;;;;;;5117533;28;20471;-58
2023/06/15 03:40:05;;;;;;;6.37;5.87;;;12.50;1.00;;;;;;5097844;28;20507;-59
2023/06/15 03:42:32;;;;;;;6.87;6.27;;;12.50;1.00;;;;;;5108594;28;20467;-58
2023/06/15 03:45:01;;;;;;;7.07;5.97;;;12.50;1.00;;;;;;5117607;28;20491;-59
2023/06/15 03:47:28;;;;;;;7.87;6.60;;;12.50;56.70;;;;;;5117710;28;20892;-59
2023/06/15 03:49:55;;;;;;;6.93;6.23;;;12.50;42.50;;;;;;5117087;28;20467;-58
2023/06/15 03:52:22;;;;;;;5.90;5.40;;;12.60;1.00;;;;;;5117492;28;20520;-58
2023/06/15 03:54:50;;;;;;;7.33;6.63;;;12.50;22.00;;;;;;5117235;28;20833;-59
2023/06/15 03:57:17;;;;;;;6.23;5.63;;;12.50;96.10;;;;;;5117277;28;20464;-58
2023/06/15 03:59:44;;;;;;;5.90;5.40;;;12.50;13.70;;;;;;5117270;28;20892;-57
2023/06/15 04:02:13;;;;;;;5.90;5.40;;;12.50;24.60;;;;;;5117480;28;20487;-54
2023/06/15 04:04:40;;;;;;;7.20;6.17;;;12.60;85.60;;;;;;5097801;28;20496;-56
2023/06/15 04:07:08;;;;;;;7.37;6.67;;;12.60;2.10;;;;;;5104705;27;20459;-53
2023/06/15 04:09:36;;;;;;;7.27;5.80;;;12.70;1.00;;;;;;5102855;27;20459;-53
2023/06/15 04:12:05;;;;;;;6.77;6.13;;;12.70;9.10;;;;;;5103923;28;20968;-49
2023/06/15 04:14:32;;;;;;;6.03;5.50;;;12.70;10.00;;;;;;5097869;28;20456;-52
2023/06/15 04:17:00;;;;;;;7.30;6.60;;;12.70;80.90;;;;;;5099611;28;20461;-55
2023/06/15 04:19:29;;;;;;;6.50;5.90;;;12.70;99.90;;;;;;5100004;28;20471;-54
2023/06/15 04:21:56;;;;;;;6.83;6.23;;;12.80;99.90;;;;;;5101319;28;20465;-50
2023/06/15 04:24:23;;;;;;;7.70;5.77;;;12.80;99.90;;;;;;5102694;28;20891;-53
2023/06/15 04:26:50;;;;;;;6.87;5.80;;;13.00;99.90;;;;;;5097835;28;20748;-55
2023/06/15 04:29:18;;;;;;;7.20;6.60;;;13.00;1.00;;;;;;5099570;28;20500;-51
2023/06/15 04:31:46;;;;;;;6.93;6.10;;;13.10;99.90;;;;;;5101391;28;20468;-55
2023/06/15 04:34:15;;;;;;;6.93;6.23;;;13.10;99.90;;;;;;5103045;28;20821;-53
2023/06/15 04:36:44;;;;;;;7.20;6.50;;;13.30;10.90;;;;;;5104405;28;20761;-55
2023/06/15 04:39:11;;;;;;;7.00;6.03;;;13.30;1.00;;;;;;5100011;28;20963;-55
2023/06/15 04:41:39;;;;;;;9.20;6.87;;;13.40;1.00;;;;;;5101531;28;20764;-55
2023/06/15 04:44:06;;;;;;;8.90;5.87;;;13.50;1.00;;;;;;5115962;28;20464;-56
2023/06/15 04:46:36;;;;;;;8.73;6.23;;;13.60;1.00;;;;;;5101269;28;20808;-57
2023/06/15 04:49:03;;;;;;;7.70;6.60;;;13.60;1.00;;;;;;5103313;28;20460;-56
2023/06/15 04:51:31;;;;;;;7.93;7.23;;;13.70;1.00;;;;;;5102966;28;20525;-55
2023/06/15 04:53:59;;;;;;;8.60;7.10;;;13.70;1.00;;;;;;5105302;28;20467;-55
2023/06/15 04:56:27;;;;;;;7.80;6.70;;;13.70;1.00;;;;;;5106559;28;20520;-52
2023/06/15 04:58:54;;;;;;;7.93;7.33;;;13.90;1.00;;;;;;5101491;28;20467;-54
2023/06/15 05:01:21;;;;;;;6.93;6.23;;;14.00;1.00;;;;;;5102119;28;20473;-54
2023/06/15 05:03:49;;;;;;;7.57;6.87;;;14.00;1.00;;;;;;5103399;28;20578;-56
2023/06/15 05:06:16;;;;;;;9.93;7.47;;;14.10;1.00;;;;;;5105136;28;20534;-56
2023/06/15 05:08:44;;;;;;;7.60;6.43;;;14.20;1.00;;;;;;5106438;28;20464;-55
2023/06/15 05:11:12;;;;;;;6.27;5.70;;;14.30;1.00;;;;;;5102754;28;20546;-55
2023/06/15 05:13:40;;;;;;;11.60;6.07;;;14.40;1.00;;;;;;5117283;28;20554;-52
2023/06/15 05:16:07;;;;;;;6.47;5.37;;;14.50;1.00;;;;;;5104613;28;20550;-54
2023/06/15 05:18:34;;;;;;;6.17;5.57;;;14.60;1.00;;;;;;5106218;28;20459;-53
2023/06/15 05:21:01;;;;;;;7.40;5.23;;;14.60;1.00;;;;;;5109003;28;20891;-55
2023/06/15 05:23:28;;;;;;;8.10;5.80;;;14.70;1.00;;;;;;5112120;28;20467;-54
2023/06/15 05:25:56;;;;;;;6.03;5.43;;;14.90;1.00;;;;;;5102954;28;20492;-59
2023/06/15 05:28:24;;;;;;;6.60;5.90;;;15.00;99.90;;;;;;5104817;28;20460;-59
2023/06/15 05:30:51;;;;;;;11.00;7.63;;;15.20;99.90;;;;;;5107338;28;20471;-58
2023/06/15 05:33:19;;;;;;;14.00;6.90;;;15.40;99.90;;;;;;5113344;28;20463;-59
2023/06/15 05:35:46;;;;;;;13.70;8.13;;;15.50;99.90;;;;;;5101385;28;20464;-59
2023/06/15 05:38:13;;;;;;;12.30;7.87;;;15.70;99.90;;;;;;5105348;28;20472;-58
2023/06/15 05:40:40;;;;;;;14.17;7.57;;;15.90;99.90;;;;;;5105434;28;20546;-57
2023/06/15 05:43:07;;;;;;;12.50;7.53;;;16.10;99.90;;;;;;5113301;28;20869;-59
2023/06/15 05:45:36;;;;;;;10.23;7.90;;;16.40;99.90;;;;;;5104379;28;20506;-58
2023/06/15 05:48:03;;;;;;;17.23;8.10;;;16.70;99.90;;;;;;5101633;28;20872;-59
2023/06/15 05:50:31;;;;;;;17.73;8.20;;;17.00;99.90;;;;;;5103351;28;20470;-59
2023/06/15 05:52:58;;;;;;;12.70;7.93;;;17.20;1.00;;;;;;5104194;28;20885;-59
2023/06/15 05:55:26;;;;;;;14.40;7.60;;;17.50;1.00;;;;;;5098353;28;20460;-57
2023/06/15 05:57:53;;;;;;;13.20;7.40;;;17.80;1.00;;;;;;5099407;28;20926;-58
2023/06/15 06:00:22;;;;;;;9.33;6.93;;;18.00;1.00;;;;;;5101803;28;20464;-59
2023/06/15 06:02:51;;;;;;;9.20;8.10;;;18.30;1.00;;;;;;5102771;28;20578;-59
2023/06/15 06:05:18;;;;;;;13.57;7.60;;;18.50;1.00;;;;;;5104405;28;20571;-58
2023/06/15 06:07:46;;;;;;;9.97;7.27;;;18.80;39.30;;;;;;5107181;28;20516;-59
2023/06/15 06:10:14;;;;;;;13.03;7.37;;;19.00;73.20;;;;;;5102289;28;20468;-59
2023/06/15 06:12:42;;;;;;;11.30;6.93;;;19.30;99.90;;;;;;5112875;28;20790;-60
2023/06/15 06:15:12;;;;;;;16.00;9.10;;;19.50;99.90;;;;;;5105591;28;20460;-60
2023/06/15 06:17:39;;;;;;;10.47;7.10;;;19.70;99.90;;;;;;5104825;28;20489;-59
2023/06/15 06:20:09;;;;;;;17.30;7.40;;;19.90;99.90;;;;;;5102533;28;20542;-59
2023/06/15 06:22:37;;;;;;;9.23;6.90;;;20.20;99.90;;;;;;5104658;28;20940;-59
2023/06/15 06:25:04;;;;;;;14.00;7.03;;;20.40;1.00;;;;;;5106131;28;20505;-58
2023/06/15 06:27:32;;;;;;;7.30;6.50;;;20.50;99.90;;;;;;5102247;28;20950;-59
2023/06/15 06:29:59;;;;;;;13.83;7.20;;;20.80;99.90;;;;;;5102290;28;20460;-59
2023/06/15 06:32:26;;;;;;;14.30;7.47;;;20.90;1.00;;;;;;5105413;28;20472;-59
2023/06/15 06:34:53;;;;;;;10.23;7.00;;;21.20;1.00;;;;;;5104391;28;20496;-58
2023/06/15 06:37:24;;;;;;;8.87;6.90;;;21.50;1.00;;;;;;5098757;28;20472;-59
2023/06/15 06:39:51;;;;;;;9.90;7.37;;;21.70;1.00;;;;;;5099107;28;20995;-59
2023/06/15 06:42:18;;;;;;;15.83;7.00;;;22.00;1.00;;;;;;5107756;28;20558;-59
2023/06/15 06:44:46;;;;;;;8.80;6.70;;;22.10;99.90;;;;;;5102919;28;20465;-59
2023/06/15 06:47:13;;;;;;;10.10;6.37;;;22.30;99.90;;;;;;5114257;28;20503;-61
2023/06/15 06:49:40;;;;;;;8.17;6.40;;;22.50;99.90;;;;;;5101275;28;20559;-61
2023/06/15 06:52:08;;;;;;;12.00;6.30;;;22.60;99.90;;;;;;5102371;28;20853;-61
2023/06/15 06:54:36;;;;;;;9.53;6.50;;;22.60;99.90;;;;;;5103590;28;20561;-61
2023/06/15 06:57:04;;;;;;;10.23;6.50;;;23.00;99.90;;;;;;5107169;28;20464;-62
2023/06/15 06:59:31;;;;;;;8.73;6.27;;;23.30;99.90;;;;;;5108434;27;20465;-61
2023/06/15 07:01:58;;;;;;;10.03;6.40;;;23.60;99.90;;;;;;5100174;28;20738;-62
2023/06/15 07:04:25;;;;;;;7.00;5.80;;;23.80;99.90;;;;;;5101565;28;20499;-61
2023/06/15 07:06:53;;;;;;;7.70;5.80;;;24.00;71.50;;;;;;5102855;28;20487;-62
2023/06/15 07:09:20;;;;;;;8.23;6.77;;;24.00;1.00;;;;;;5096325;28;20477;-61
2023/06/15 07:11:49;;;;;;;6.53;5.60;;;24.20;1.00;;;;;;5113688;27;20464;-62
2023/06/15 07:14:16;;;;;;;6.77;5.90;;;24.20;1.00;;;;;;5100285;28;20472;-61
2023/06/15 07:16:43;;;;;;;8.33;5.77;;;24.60;1.00;;;;;;5101711;28;20598;-62
2023/06/15 07:19:11;;;;;;;5.73;5.07;;;24.80;1.00;;;;;;5100631;28;20870;-62
2023/06/15 07:21:39;;;;;;;5.63;5.13;;;25.00;1.00;;;;;;5104420;28;20480;-62
2023/06/15 07:24:06;;;;;;;7.90;6.10;;;25.20;1.00;;;;;;5108801;28;20476;-62
2023/06/15 07:26:33;;;;;;;6.60;5.13;;;25.30;1.00;;;;;;5104288;28;20492;-62
2023/06/15 07:29:02;;;;;;;7.43;5.00;;;25.60;1.00;;;;;;5099907;28;20507;-62
2023/06/15 07:31:30;;;;;;;6.87;5.40;;;25.80;1.00;;;;;;5101309;28;20471;-62
2023/06/15 07:33:57;;;;;;;5.30;4.80;;;25.90;1.00;;;;;;5103587;28;20464;-59
2023/06/15 07:36:24;;;;;;;6.07;5.13;;;26.20;1.00;;;;;;5098030;28;20460;-59
2023/06/15 07:38:53;;;;;;;6.37;5.67;;;26.30;99.90;;;;;;5100449;28;20884;-58
2023/06/15 07:41:21;;;;;;;6.57;5.00;;;26.40;99.90;;;;;;5104948;27;20473;-62
2023/06/15 07:43:48;;;;;;;6.87;5.07;;;26.30;99.90;;;;;;5103101;28;20464;-59
2023/06/15 07:46:17;;;;;;;5.97;4.20;;;26.40;99.90;;;;;;5101622;28;20925;-58
2023/06/15 07:48:44;;;;;;;6.17;4.33;;;26.50;99.90;;;;;;5110575;28;20460;-60
2023/06/15 07:51:11;;;;;;;8.40;5.30;;;26.70;99.90;;;;;;5099704;28;20492;-61
2023/06/15 07:53:39;;;;;;;6.57;5.20;;;26.80;99.90;;;;;;5101041;28;21102;-62
2023/06/15 07:56:06;;;;;;;5.03;4.47;;;27.00;99.90;;;;;;5105164;28;20821;-60
2023/06/15 07:58:33;;;;;;;5.83;5.00;;;27.20;99.90;;;;;;5100946;28;20546;-61
2023/06/15 08:01:00;;;;;;;8.20;5.67;;;27.40;99.90;;;;;;5101549;28;20472;-60
2023/06/15 08:03:31;;;;;;;7.90;5.10;;;27.60;99.90;;;;;;5102490;28;20511;-59
2023/06/15 08:05:58;;;;;;;6.13;4.93;;;27.80;99.90;;;;;;5106894;28;20807;-61
2023/06/15 08:08:25;;;;;;;5.97;4.93;;;27.80;99.90;;;;;;5104601;28;20764;-61
2023/06/15 08:10:53;;;;;;;5.13;4.73;;;27.80;99.90;;;;;;5104315;28;20928;-61
2023/06/15 08:16:01;;;;;;;6.00;4.70;;;28.00;99.90;;;;;;5096578;28;20462;-60
2023/06/15 08:18:29;;;;;;;4.60;4.20;;;27.80;99.90;;;;;;5098865;28;20488;-60
2023/06/15 08:20:57;;;;;;;5.67;4.87;;;26.70;99.90;;;;;;5101966;28;20471;-61
2023/06/15 08:23:24;;;;;;;9.57;5.10;;;26.90;99.90;;;;;;5111208;28;20467;-61
2023/06/15 08:25:52;;;;;;;5.60;4.97;;;26.80;99.90;;;;;;5111094;28;20928;-60
2023/06/15 08:28:19;;;;;;;5.40;4.83;;;26.20;99.90;;;;;;5111721;28;20843;-60
2023/06/15 08:30:47;;;;;;;6.00;5.00;;;26.40;99.90;;;;;;5113081;28;20487;-61
2023/06/15 08:33:14;;;;;;;6.27;5.67;;;26.80;99.90;;;;;;5099417;28;20567;-60
2023/06/15 08:35:43;;;;;;;7.03;5.23;;;27.50;99.90;;;;;;5100537;28;20468;-61
2023/06/15 08:38:10;;;;;;;6.53;4.60;;;27.20;99.90;;;;;;5107689;28;20455;-62
2023/06/15 08:40:38;;;;;;;6.47;4.93;;;26.20;99.90;;;;;;5097297;28;20496;-61
2023/06/15 08:43:07;;;;;;;7.03;4.77;;;26.80;99.90;;;;;;5108672;28;20466;-61
2023/06/15 08:45:40;;;;;;;5.10;4.60;;;27.20;99.90;;;;;;5101648;28;20458;-61
2023/06/15 08:48:10;;;;;;;4.90;4.50;;;28.00;99.90;;;;;;5103480;28;20455;-61
2023/06/15 08:50:39;;;;;;;6.27;5.00;;;28.40;99.90;;;;;;5098236;28;20460;-61
2023/06/15 08:53:09;;;;;;;4.70;4.27;;;28.70;99.90;;;;;;5098650;28;20452;-61
2023/06/15 08:55:39;;;;;;;5.67;5.20;;;28.30;99.90;;;;;;5099698;28;20554;-62
2023/06/15 08:58:07;;;;;;;6.70;4.83;;;28.40;99.90;;;;;;5101696;28;20501;-61
2023/06/15 09:00:35;;;;;;;11.30;5.57;;;28.40;99.90;;;;;;5102880;28;20514;-61
2023/06/15 09:03:07;;;;;;;5.87;5.23;;;28.60;99.90;;;;;;5097096;28;20480;-62
2023/06/15 09:05:34;;;;;;;5.30;4.80;;;29.00;99.90;;;;;;5098558;28;20865;-61
2023/06/15 09:08:03;;;;;;;5.60;5.00;;;29.30;99.90;;;;;;5100474;28;20551;-62
2023/06/15 09:10:36;;;;;;;6.33;5.03;;;29.50;99.90;;;;;;5112026;28;20506;-62
2023/06/15 09:13:04;;;;;;;6.23;4.57;;;29.20;99.90;;;;;;5109747;28;20486;-61
2023/06/15 09:15:31;;;;;;;6.93;5.20;;;29.00;99.90;;;;;;5110550;28;20458;-62
2023/06/15 09:18:00;;;;;;;5.07;4.60;;;28.90;99.90;;;;;;5102740;28;20467;-61
2023/06/15 09:20:30;;;;;;;7.53;5.60;;;29.40;99.90;;;;;;5103884;28;20870;-61
2023/06/15 09:22:59;;;;;;;6.00;5.40;;;29.10;99.90;;;;;;5099322;28;20929;-61
2023/06/15 09:25:26;;;;;;;9.00;5.50;;;29.10;99.90;;;;;;5100021;28;20467;-61
2023/06/15 09:27:56;;;;;;;5.30;4.90;;;29.40;99.90;;;;;;5105079;28;20487;-61
2023/06/15 09:30:29;;;;;;;5.10;4.70;;;30.00;99.90;;;;;;5104868;28;20470;-61
2023/06/15 09:32:57;;;;;;;6.23;4.57;;;30.30;99.90;;;;;;5105787;28;20499;-61
2023/06/15 09:35:24;;;;;;;6.40;5.07;;;30.00;99.90;;;;;;5107612;28;20495;-60
2023/06/15 09:37:56;;;;;;;5.87;5.27;;;29.80;99.90;;;;;;5101799;28;20460;-61
2023/06/15 09:40:26;;;;;;;4.63;4.17;;;29.20;99.90;;;;;;5105968;28;20558;-61
2023/06/15 09:42:56;;;;;;;6.27;5.70;;;28.60;99.90;;;;;;5110191;28;20459;-61
2023/06/15 09:45:24;;;;;;;7.60;4.93;;;29.70;99.90;;;;;;5118747;28;20766;-61
2023/06/15 09:47:56;;;;;;;6.17;5.67;;;28.80;99.90;;;;;;5114113;28;20839;-59
2023/06/15 09:50:29;;;;;;;5.33;4.83;;;27.60;99.90;;;;;;5102581;28;20471;-60
2023/06/15 09:52:58;;;;;;;9.03;5.70;;;27.30;99.90;;;;;;5108077;28;20503;-61
2023/06/15 09:55:26;;;;;;;6.10;5.53;;;27.00;99.90;;;;;;5108117;28;20455;-61
2023/06/15 09:57:55;;;;;;;7.17;5.03;;;26.00;99.90;;;;;;5106402;28;20463;-60
2023/06/15 10:00:24;;;;;;;6.50;4.67;;;26.40;99.90;;;;;;5104061;28;20539;-60
2023/06/15 10:02:55;;;;;;;6.10;5.50;;;26.10;99.90;;;;;;5104145;28;20499;-61
2023/06/15 10:05:31;;;;;;;5.83;5.10;;;25.70;99.90;;;;;;5103766;28;20835;-59
2023/06/15 10:08:01;;;;;;;7.27;4.97;;;25.70;99.90;;;;;;5103217;28;20498;-60
2023/06/15 10:10:31;;;;;;;8.60;5.13;;;25.30;99.90;;;;;;5100775;28;20554;-61
2023/06/15 10:13:01;;;;;;;8.23;5.20;;;25.50;99.90;;;;;;5107582;28;20475;-60
2023/06/15 10:15:33;;;;;;;7.27;4.50;;;25.90;99.90;;;;;;5103517;28;20489;-60
2023/06/15 10:18:03;;;;;;;6.97;4.90;;;26.90;99.90;;;;;;5112130;28;20460;-61
2023/06/15 10:20:33;;;;;;;5.57;4.83;;;28.10;99.90;;;;;;5102885;28;20516;-61
2023/06/15 10:23:04;;;;;;;5.43;4.93;;;28.20;99.90;;;;;;5105708;28;20503;-60
2023/06/15 10:25:32;;;;;;;6.57;5.70;;;28.10;99.90;;;;;;5102494;28;20460;-60
2023/06/15 10:28:09;;;;;;;6.23;5.60;;;29.10;99.90;;;;;;5110128;28;20514;-61
2023/06/15 10:30:43;;;;;;;5.37;4.57;;;29.10;99.90;;;;;;5107221;28;20787;-61
2023/06/15 10:33:20;;;;;;;5.17;4.77;;;27.20;99.90;;;;;;5106974;28;20470;-60
2023/06/15 10:35:54;;;;;;;7.00;5.90;;;26.90;99.90;;;;;;5103998;28;20455;-61
2023/06/15 10:38:30;;;;;;;6.20;5.03;;;25.30;99.90;;;;;;5097841;28;20769;-60
2023/06/15 10:40:58;;;;;;;5.13;4.60;;;25.20;99.90;;;;;;5101040;28;20470;-61
2023/06/15 10:43:28;;;;;;;5.50;5.00;;;24.90;99.90;;;;;;5106008;28;20476;-60
2023/06/15 10:45:57;;;;;;;7.53;5.10;;;25.50;99.90;;;;;;5110865;28;20524;-61
2023/06/15 10:48:26;;;;;;;6.50;5.13;;;25.90;99.90;;;;;;5105969;28;20575;-62
2023/06/15 10:51:02;;;;;;;7.20;5.60;;;25.90;99.90;;;;;;5116996;28;20470;-61
2023/06/15 10:53:30;;;;;;;5.63;5.13;;;26.70;99.90;;;;;;5102506;28;20558;-61
2023/06/15 10:55:59;;;;;;;5.03;4.50;;;27.70;99.90;;;;;;5101982;28;20516;-60
2023/06/15 10:58:29;;;;;;;6.10;5.33;;;28.90;99.90;;;;;;5102113;28;20463;-60
2023/06/15 11:01:13;;;;;;;6.77;5.90;;;29.30;99.90;;;;;;5105741;28;20463;-60
2023/06/15 11:03:42;;;;;;;6.27;5.67;;;30.20;99.90;;;;;;5103643;28;20495;-60
2023/06/15 11:06:16;;;;;;;6.43;5.00;;;30.80;99.90;;;;;;5099803;28;20912;-60
2023/06/15 11:08:48;;;;;;;5.50;5.10;;;30.80;99.90;;;;;;5110260;27;20459;-60
2023/06/15 11:11:18;;;;;;;5.80;5.30;;;30.00;99.90;;;;;;5109520;27;20885;-60
2023/06/15 11:13:56;;;;;;;7.33;5.80;;;28.10;99.90;;;;;;5096938;28;20507;-59
2023/06/15 11:16:30;;;;;;;6.20;5.60;;;27.60;99.90;;;;;;5108300;28;20464;-59
2023/06/15 11:19:16;;;;;;;6.47;5.90;;;27.40;99.90;;;;;;5096075;28;20532;-60
2023/06/15 11:21:52;;;;;;;6.53;5.50;;;27.10;99.90;;;;;;5098561;28;20893;-59
2023/06/15 11:24:20;;;;;;;6.27;5.67;;;27.50;99.90;;;;;;5099704;28;20456;-60
2023/06/15 11:26:50;;;;;;;6.33;5.67;;;28.60;99.90;;;;;;5094273;28;20886;-61
2023/06/15 11:29:22;;;;;;;7.93;7.00;;;29.00;99.90;;;;;;5097453;28;20827;-60
2023/06/15 11:31:51;;;;;;;5.77;5.27;;;28.10;99.90;;;;;;5110765;28;20860;-61
2023/06/15 11:34:19;;;;;;;6.80;5.73;;;28.10;99.90;;;;;;5103526;28;20874;-60
2023/06/15 11:36:47;;;;;;;5.47;4.97;;;29.00;99.90;;;;;;5103021;28;20457;-59
2023/06/15 11:39:24;;;;;;;5.70;5.20;;;29.00;99.90;;;;;;5097756;28;20468;-57
2023/06/15 11:41:53;;;;;;;5.40;4.90;;;28.90;99.90;;;;;;5111531;28;20554;-59
2023/06/15 11:44:21;;;;;;;7.40;5.87;;;28.40;99.90;;;;;;5112085;28;20778;-60
2023/06/15 11:46:57;;;;;;;5.50;5.00;;;27.50;99.90;;;;;;5114248;28;20848;-60
2023/06/15 11:49:25;;;;;;;7.23;5.83;;;26.80;99.90;;;;;;5110356;28;20466;-60
2023/06/15 11:51:53;;;;;;;5.83;5.20;;;26.70;99.90;;;;;;5112143;28;20509;-60
2023/06/15 11:54:25;;;;;;;5.23;4.80;;;26.60;99.90;;;;;;5112627;28;20464;-60
2023/06/15 11:56:55;;;;;;;5.33;4.90;;;26.40;99.90;;;;;;5114234;28;20452;-60
2023/06/15 11:59:23;;;;;;;8.00;5.47;;;26.40;99.90;;;;;;5111485;28;20459;-60
2023/06/15 12:01:51;;;;;;;5.03;4.63;;;26.00;99.90;;;;;;5111180;27;20474;-60
2023/06/15 12:04:20;;;;;;;8.63;4.70;;;25.50;99.90;;;;;;5111327;28;20905;-59
2023/06/15 12:06:48;;;;;;;5.17;4.67;;;25.80;99.90;;;;;;5109280;28;20465;-59
2023/06/15 12:09:16;;;;;;;5.67;5.20;;;26.70;99.90;;;;;;5098256;28;20476;-60
2023/06/15 12:11:45;;;;;;;5.07;4.63;;;27.90;99.90;;;;;;5104588;28;20456;-61
2023/06/15 12:14:16;;;;;;;5.00;4.57;;;28.90;99.90;;;;;;5106683;27;20499;-61
2023/06/15 12:16:50;;;;;;;5.40;4.97;;;29.70;99.90;;;;;;5103692;28;20456;-60
2023/06/15 12:19:21;;;;;;;5.00;4.50;;;29.00;99.90;;;;;;5097042;28;20463;-58
2023/06/15 12:21:49;;;;;;;4.87;4.40;;;29.80;99.90;;;;;;5098789;28;20888;-60
2023/06/15 12:24:17;;;;;;;6.07;5.47;;;30.60;99.90;;;;;;5100220;28;20820;-60
2023/06/15 12:26:51;;;;;;;4.93;4.53;;;31.00;99.90;;;;;;5103978;28;20753;-60
2023/06/15 12:29:20;;;;;;;4.80;4.40;;;30.70;99.90;;;;;;5101768;28;20814;-59
2023/06/15 12:31:53;;;;;;;5.13;4.73;;;31.00;99.90;;;;;;5097358;28;20563;-59
2023/06/15 12:34:24;;;;;;;5.03;4.53;;;31.40;99.90;;;;;;5100034;28;20766;-60
2023/06/15 12:36:52;;;;;;;5.40;4.40;;;30.10;99.90;;;;;;5101008;28;20900;-61
2023/06/15 12:39:20;;;;;;;4.83;4.43;;;30.80;99.90;;;;;;5094979;28;20550;-59
2023/06/15 12:41:47;;;;;;;4.83;4.43;;;30.40;99.90;;;;;;5101091;28;20475;-60
2023/06/15 12:44:15;;;;;;;4.93;4.63;;;29.70;99.90;;;;;;5107874;28;20832;-61
2023/06/15 12:46:42;;;;;;;4.97;4.67;;;29.70;99.90;;;;;;5100649;28;20517;-63
2023/06/15 12:49:10;;;;;;;6.50;4.57;;;28.90;99.90;;;;;;5108092;28;20547;-61
2023/06/15 12:51:40;;;;;;;4.93;4.43;;;29.10;99.90;;;;;;5108138;28;20887;-59
2023/06/15 12:54:08;;;;;;;4.80;4.40;;;29.90;99.90;;;;;;5098451;28;20510;-61
2023/06/15 12:56:36;;;;;;;6.47;4.40;;;30.40;99.90;;;;;;5099893;28;20455;-60
2023/06/15 12:59:03;;;;;;;4.93;4.17;;;31.10;99.90;;;;;;5100769;28;20501;-60
2023/06/15 13:01:32;;;;;;;5.37;4.80;;;30.00;99.90;;;;;;5102951;28;20466;-61